Chesterfield, MO

2:06 PM CDT on August 04, 2015 (GMT -0500)
Spirit Of Saint Louis | | Change Station
CLOSE
Current Station
Airport
Location: Spirit of St Louis,
Elevation: 463 ft
Nearby Weather Stations

Elev 463 ft 38.66 °N, 90.66 °W | Updated 12 minutes ago

Mostly Cloudy
Mostly Cloudy
89 °F
Feels Like 95 °F
N
5
Wind Variable Wind from WNW

Today
High -- | Low -- °F
--% Chance of Precip.
Yesterday
High -- | Low -- °F
Precip. -- in
6:06 AM 8:10 PM
Waning Gibbous, 75% visible
Pressure 29.95 in
Visibility 10.0 miles
Clouds Few 5000 ft
Mostly Cloudy 25000 ft
Heat Index 95 °F
Dew Point 71 °F
Humidity 55%
Rainfall 0.00 in
Snow Depth Not available.
UV 6 out of 12
Pollen 6.50 out of 12
Air Quality Not available.
Flu Activity Not available.
METAR KSUS 041854Z 29004KT 10SM FEW050 BKN250 32/22 A2998 RMK AO2 SLP141 T03170217

More Conditions Fewer Conditions

Pressure 29.95 in
Visibility 10.0 miles
Clouds Few 5000 ft
Mostly Cloudy 25000 ft
Heat Index 95 °F
Dew Point 71 °F
Humidity 55%
Rainfall 0.00 in
Snow Depth Not available.
UV 6 out of 12
Pollen 6.50 out of 12
Air Quality Not available.
Flu Activity Not available.
METAR KSUS 041854Z 29004KT 10SM FEW050 BKN250 32/22 A2998 RMK AO2 SLP141 T03170217

More Conditions Fewer Conditions

10-Day Weather Forecast

×

Almanac

Astronomy

Aug. 04, 2015 Rise Set
Actual Time
Civil Twilight
Nautical Twilight
Astronomical Twilight
Moon
Length of Visible Light
Length of Day
Tomorrow will be .
, % of the Moon is Illuminated

Today's Extremes

State Highs State Lows

Community

WunderPhotos

Upload Photos

1,843,952 photos uploaded!

WunderBlogs® & News

Nearby

Air Quality

  Air Quality AQ Index Pollutant
Not available.

Snow Depth

Station Depth Elevation

Earthquake Activity

City Distance Mag. Time & Date
Minimum magnitude displayed is 2.5.

Coastal Water Temperatures

Place Temperature

Stations

Nearby Weather Stations

Station Location Temp. Windchill Dew Point Humidity Wind Precip. Elev Updated Type